Time;durP1;ratioP1;P1;durP2;ratioP2;P2;SDS_P1;SDS_P2;PMS_P1;PMS_P2;Temp;Humidity;BMP_temperature;BMP_pressure;BME280_temperature;BME280_humidity;BME280_pressure;Samples;Min_cycle;Max_cycle;Signal;HPM_P1;HPM_P2
2022/10/12 00:01:33;;;;;;;;;5.75;5.00;;;;;11.33;62.06;101432.53;5121583;27;45384;-88
2022/10/12 00:03:58;;;;;;;;;9.00;7.75;;;;;11.13;62.04;101407.13;5102827;27;45418;-88
2022/10/12 00:06:24;;;;;;;;;5.25;5.25;;;;;11.48;61.75;101450.03;5120648;27;45501;-88
2022/10/12 00:08:51;;;;;;;;;6.50;4.00;;;;;11.44;62.15;101449.16;5121716;27;46359;-87
2022/10/12 00:11:28;;;;;;;;;5.00;5.00;;;;;11.90;62.48;101532.56;5119619;27;45508;-87
2022/10/12 00:13:54;;;;;;;;;5.50;5.50;;;;;11.86;62.89;101534.38;5101738;27;45501;-87
2022/10/12 00:16:21;;;;;;;;;7.25;7.25;;;;;11.86;62.29;101525.56;5082019;27;45487;-88
2022/10/12 00:18:54;;;;;;;;;7.25;5.50;;;;;11.82;63.49;101543.25;5104678;27;45535;-88
2022/10/12 00:21:21;;;;;;;;;7.75;6.75;;;;;11.09;62.36;101417.75;5120083;27;45418;-87
2022/10/12 00:23:47;;;;;;;;;10.75;9.00;;;;;11.12;62.34;101405.38;5122279;27;45360;-87
2022/10/12 00:26:15;;;;;;;;;8.00;6.25;;;;;11.65;62.86;101505.47;5100783;27;45620;-87
2022/10/12 00:28:41;;;;;;;;;10.00;8.00;;;;;10.82;62.67;101370.34;5100560;27;46730;-87
2022/10/12 00:31:09;;;;;;;;;10.25;9.00;;;;;11.63;62.99;101505.47;5100713;27;45320;-87
2022/10/12 00:33:37;;;;;;;;;6.00;5.00;;;;;10.99;63.29;101412.53;5099140;27;45454;-88
2022/10/12 00:36:13;;;;;;;;;12.75;6.00;;;;;11.25;63.39;101452.88;5101046;27;45556;-87
2022/10/12 00:38:38;;;;;;;;;10.50;5.75;;;;;11.10;63.75;101438.91;5100734;27;45491;-87
2022/10/12 00:41:04;;;;;;;;;3.25;3.25;;;;;11.65;63.24;101524.00;5102052;27;45468;-87
2022/10/12 00:43:37;;;;;;;;;4.00;4.00;;;;;11.01;63.63;101433.69;5121471;27;45645;-87
2022/10/12 00:46:26;;;;;;;;;10.50;9.50;;;;;10.95;64.05;101420.53;5121407;27;45428;-87
2022/10/12 00:49:12;;;;;;;;;7.25;7.25;;;;;11.58;63.60;101540.81;5090612;27;47116;-87
2022/10/12 00:51:45;;;;;;;;;9.00;5.25;;;;;11.20;64.04;101488.22;5100725;27;45998;-88
2022/10/12 00:54:18;;;;;;;;;8.25;4.50;;;;;11.02;65.27;101452.19;5118874;27;45434;-88
2022/10/12 00:56:47;;;;;;;;;8.00;7.50;;;;;11.54;64.25;101524.97;5101505;27;45396;-88
2022/10/12 00:59:18;;;;;;;;;9.25;7.00;;;;;10.90;63.41;101428.50;5120397;27;45650;-87
2022/10/12 01:01:44;;;;;;;;;8.50;8.50;;;;;10.14;63.97;101301.22;5116712;27;46707;-87
2022/10/12 01:04:09;;;;;;;;;13.25;9.25;;;;;10.18;64.17;101317.94;5100275;27;45402;-87
2022/10/12 01:06:35;;;;;;;;;9.25;8.00;;;;;11.34;64.42;101521.59;5099834;27;45395;-87
2022/10/12 01:09:01;;;;;;;;;8.00;8.00;;;;;11.43;64.11;101526.81;5118719;27;46072;-87
2022/10/12 01:11:26;;;;;;;;;8.00;7.00;;;;;11.42;64.75;101522.44;5099502;27;45342;-87
2022/10/12 01:13:52;;;;;;;;;9.00;5.00;;;;;10.73;65.04;101411.84;5099263;27;45808;-88
2022/10/12 01:16:21;;;;;;;;;9.25;6.00;;;;;11.36;65.39;101520.72;5103476;27;45614;-88
2022/10/12 01:18:59;;;;;;;;;5.50;5.50;;;;;11.09;65.94;101468.88;5099950;27;47108;-88
2022/10/12 01:21:25;;;;;;;;;7.75;4.50;;;;;10.97;65.75;101464.56;5101270;27;45412;-88
2022/10/12 01:24:00;;;;;;;;;9.75;8.50;;;;;11.29;66.02;101521.66;5093490;27;45335;-87
2022/10/12 01:26:55;;;;;;;;;11.75;9.00;;;;;11.29;66.58;101518.13;5088079;27;45451;-87
2022/10/12 01:30:08;;;;;;;;;5.50;4.75;;;;;11.24;66.42;101510.22;5086790;27;47119;-87
2022/10/12 01:32:49;;;;;;;;;8.50;7.00;;;;;11.20;66.50;101514.69;5043205;28;45392;-87
2022/10/12 01:35:20;;;;;;;;;11.00;8.50;;;;;11.20;66.77;101522.63;5039718;28;45246;-87
2022/10/12 01:38:27;;;;;;;;;10.50;9.75;;;;;11.16;67.18;101512.06;5039139;28;45396;-87
2022/10/12 01:41:04;;;;;;;;;8.25;7.25;;;;;10.27;66.94;101360.16;4992904;28;45998;-86
2022/10/12 01:43:40;;;;;;;;;10.00;10.00;;;;;11.10;67.15;101509.44;4977651;28;45567;-87
2022/10/12 01:46:14;;;;;;;;;11.00;10.00;;;;;11.09;67.40;101511.22;4978506;28;45547;-86
2022/10/12 01:48:41;;;;;;;;;7.00;7.00;;;;;10.58;67.68;101440.19;4995173;28;45314;-87
2022/10/12 01:51:10;;;;;;;;;9.25;8.00;;;;;10.17;67.63;101359.31;4979573;28;48502;-88
2022/10/12 01:53:56;;;;;;;;;2.00;1.00;;;;;11.02;67.81;101513.03;4985834;28;45411;-86
2022/10/12 01:56:46;;;;;;;;;10.25;9.25;;;;;10.48;67.84;101420.84;4959002;28;45310;-87
2022/10/12 01:59:23;;;;;;;;;11.50;8.25;;;;;10.05;67.22;101357.66;4974663;28;45536;-86
2022/10/12 02:01:56;;;;;;;;;10.25;8.75;;;;;10.96;68.32;101510.44;4974817;28;46056;-87
2022/10/12 02:04:47;;;;;;;;;9.25;8.00;;;;;10.95;68.26;101507.81;4991085;28;45463;-87
2022/10/12 02:07:24;;;;;;;;;10.00;6.50;;;;;10.58;68.09;101445.47;5033503;28;45497;-86
2022/10/12 02:09:54;;;;;;;;;9.50;9.50;;;;;10.32;68.07;101405.91;5040820;28;45273;-87
2022/10/12 02:12:22;;;;;;;;;11.25;9.75;;;;;10.67;68.15;101465.66;5053894;28;47261;-87
2022/10/12 02:14:55;;;;;;;;;11.00;8.00;;;;;10.24;67.85;101386.59;5069089;27;45544;-87
2022/10/12 02:17:21;;;;;;;;;11.00;9.00;;;;;10.79;68.45;101475.28;5078141;27;45331;-87
2022/10/12 02:19:57;;;;;;;;;11.00;8.25;;;;;10.86;68.30;101498.16;5079181;27;45508;-87
2022/10/12 02:22:29;;;;;;;;;8.25;8.25;;;;;10.86;68.20;101497.28;5087957;27;48083;-87
2022/10/12 02:24:57;;;;;;;;;7.75;5.00;;;;;10.25;67.86;101397.16;5099277;27;45435;-87
2022/10/12 02:27:25;;;;;;;;;10.25;8.00;;;;;10.02;68.05;101360.31;5097875;27;45381;-88
2022/10/12 02:29:50;;;;;;;;;6.75;6.00;;;;;10.28;68.56;101388.34;5080826;27;45189;-86
2022/10/12 02:32:19;;;;;;;;;8.00;7.50;;;;;10.83;68.21;101482.31;5088825;27;45710;-86
2022/10/12 02:35:23;;;;;;;;;8.00;7.00;;;;;10.79;68.14;101484.06;5118802;27;45512;-87
2022/10/12 02:38:03;;;;;;;;;9.00;7.75;;;;;10.00;68.53;101340.94;5065418;27;45409;-87
2022/10/12 02:41:11;;;;;;;;;8.25;6.75;;;;;10.60;68.40;101442.81;5118971;27;45725;-87
2022/10/12 02:43:49;;;;;;;;;8.75;8.75;;;;;10.11;68.40;101383.13;5087300;27;48302;-88
2022/10/12 02:46:17;;;;;;;;;10.00;6.25;;;;;10.72;68.33;101474.44;5098427;27;45549;-87
2022/10/12 02:48:47;;;;;;;;;5.50;5.25;;;;;9.83;68.53;101321.66;5119255;27;45468;-87
2022/10/12 02:51:13;;;;;;;;;10.50;8.50;;;;;9.49;68.86;101269.03;5097973;27;45474;-87
2022/10/12 02:53:39;;;;;;;;;9.75;8.50;;;;;10.24;68.62;101395.41;5097878;27;47028;-86
2022/10/12 02:56:10;;;;;;;;;8.00;8.00;;;;;9.98;68.45;101353.28;5116145;27;45896;-87
2022/10/12 02:58:35;;;;;;;;;9.00;8.00;;;;;10.36;68.67;101418.28;5097749;27;45362;-85
2022/10/12 03:01:01;;;;;;;;;9.00;7.50;;;;;10.08;68.47;101381.41;5116830;27;45399;-87
2022/10/12 03:03:26;;;;;;;;;9.00;7.75;;;;;10.62;68.64;101467.47;5099451;27;47312;-87
2022/10/12 03:05:51;;;;;;;;;8.75;6.00;;;;;9.59;69.00;101298.00;5114927;27;45466;-86
2022/10/12 03:08:17;;;;;;;;;7.25;6.00;;;;;9.42;68.02;101276.97;5097525;27;45405;-87
2022/10/12 03:10:42;;;;;;;;;5.25;5.25;;;;;9.94;69.24;101363.00;5097886;27;45377;-86
2022/10/12 03:13:07;;;;;;;;;9.00;5.00;;;;;9.51;68.92;101291.88;5097922;27;47752;-87
2022/10/12 03:15:33;;;;;;;;;6.50;6.50;;;;;10.24;69.09;101413.88;5098600;27;45682;-87
2022/10/12 03:17:58;;;;;;;;;11.25;9.00;;;;;9.93;68.80;101360.34;5117279;27;45232;-87
2022/10/12 03:20:24;;;;;;;;;7.50;7.50;;;;;10.25;69.12;101435.94;5120017;27;45377;-86
2022/10/12 03:22:49;;;;;;;;;7.75;7.75;;;;;10.19;69.27;101410.41;5124848;27;45647;-86
2022/10/12 03:25:15;;;;;;;;;8.00;5.75;;;;;9.28;69.30;101268.25;5101813;27;45393;-86
2022/10/12 03:27:40;;;;;;;;;10.50;8.25;;;;;9.39;68.99;101271.69;5099407;27;45676;-86
2022/10/12 03:30:06;;;;;;;;;8.00;6.75;;;;;9.52;69.41;101316.50;5102643;27;45259;-87
2022/10/12 03:32:32;;;;;;;;;11.00;10.25;;;;;8.96;69.17;101216.47;5101662;27;47254;-86
2022/10/12 03:34:57;;;;;;;;;10.00;8.25;;;;;9.66;69.18;101319.13;5119804;27;45329;-86
2022/10/12 03:37:22;;;;;;;;;9.50;8.25;;;;;10.44;69.60;101474.59;5119329;27;45371;-87
2022/10/12 03:39:48;;;;;;;;;9.00;4.75;;;;;9.59;69.15;101312.97;5101929;27;45764;-87
2022/10/12 03:42:14;;;;;;;;;11.50;9.25;;;;;9.96;69.79;101390.25;5120419;27;45646;-86
2022/10/12 03:44:40;;;;;;;;;9.00;9.00;;;;;9.62;69.64;101331.44;5101754;27;45381;-87
2022/10/12 03:47:05;;;;;;;;;9.00;9.00;;;;;10.31;69.74;101449.97;5120381;27;45255;-87
2022/10/12 03:49:30;;;;;;;;;9.50;8.00;;;;;10.29;70.24;101440.28;5119455;27;45506;-87
2022/10/12 03:51:56;;;;;;;;;10.50;9.50;;;;;10.18;69.58;101423.63;5101012;27;47763;-87
2022/10/12 03:54:21;;;;;;;;;10.75;7.00;;;;;9.69;69.83;101346.38;5097350;27;45511;-86
2022/10/12 03:56:46;;;;;;;;;11.00;9.50;;;;;9.93;69.98;101389.41;5096725;27;45480;-86
2022/10/12 03:59:12;;;;;;;;;9.25;8.75;;;;;9.70;69.85;101361.34;5117659;27;48051;-87
2022/10/12 04:01:37;;;;;;;;;10.25;8.50;;;;;9.16;69.81;101265.66;5081393;27;50230;-87
2022/10/12 04:04:03;;;;;;;;;8.00;7.75;;;;;9.95;69.75;101411.41;5098590;27;45420;-87
2022/10/12 04:06:28;;;;;;;;;9.50;8.50;;;;;9.14;70.05;101264.75;5081427;27;45437;-88
2022/10/12 04:08:53;;;;;;;;;7.50;6.50;;;;;9.83;70.22;101390.31;5111585;27;45491;-86
2022/10/12 04:11:19;;;;;;;;;7.75;7.75;;;;;9.96;70.41;101399.97;5101691;27;47047;-87
2022/10/12 04:13:45;;;;;;;;;9.25;8.25;;;;;9.46;70.55;101322.72;5101770;27;45385;-87
2022/10/12 04:16:10;;;;;;;;;4.50;4.50;;;;;9.04;70.61;101248.09;5102252;27;45512;-87
2022/10/12 04:18:35;;;;;;;;;10.25;7.25;;;;;9.88;70.46;101391.16;5103426;27;45688;-87
2022/10/12 04:21:03;;;;;;;;;9.00;8.50;;;;;10.05;70.81;101428.06;5119417;27;45300;-87
2022/10/12 04:23:28;;;;;;;;;9.75;9.75;;;;;9.53;70.67;101352.59;5119012;27;45501;-87
2022/10/12 04:25:53;;;;;;;;;9.00;9.00;;;;;9.62;69.68;101371.03;5100822;27;45356;-87
2022/10/12 04:28:19;;;;;;;;;8.75;8.00;;;;;9.02;70.43;101260.41;5101077;27;45608;-87
2022/10/12 04:30:45;;;;;;;;;9.25;9.25;;;;;9.56;70.07;101357.84;5099511;27;48210;-86
2022/10/12 04:33:10;;;;;;;;;10.75;7.25;;;;;9.66;70.16;101388.63;5100739;27;45462;-86
2022/10/12 04:35:36;;;;;;;;;10.50;9.00;;;;;9.58;71.00;101382.47;5121090;27;45210;-86
2022/10/12 04:38:01;;;;;;;;;8.50;7.75;;;;;9.92;70.57;101457.16;5100927;27;45354;-86
2022/10/12 04:40:26;;;;;;;;;10.25;9.25;;;;;9.87;70.42;101434.28;5098610;27;48064;-86
2022/10/12 04:42:52;;;;;;;;;8.25;6.00;;;;;8.91;70.68;101276.25;5099904;27;54565;-86
2022/10/12 04:45:17;;;;;;;;;11.75;10.50;;;;;9.84;71.07;101422.00;5101320;27;45442;-86
2022/10/12 04:47:42;;;;;;;;;10.25;8.25;;;;;8.90;71.32;101274.50;5105272;27;45400;-86
2022/10/12 04:50:08;;;;;;;;;12.50;11.50;;;;;10.10;71.56;101474.72;5103195;27;47444;-87
2022/10/12 04:52:33;;;;;;;;;9.50;8.50;;;;;9.04;72.06;101290.28;5117708;27;45475;-86
2022/10/12 04:54:59;;;;;;;;;11.00;11.00;;;;;9.38;71.48;101356.13;5120446;27;45456;-87
2022/10/12 04:57:24;;;;;;;;;13.25;10.25;;;;;9.46;71.72;101378.13;5119102;27;45377;-87
2022/10/12 04:59:49;;;;;;;;;13.00;10.00;;;;;10.07;71.49;101472.09;5100243;27;48292;-86
2022/10/12 05:02:15;;;;;;;;;9.75;9.75;;;;;9.85;71.61;101426.38;5118303;27;45383;-87
2022/10/12 05:04:40;;;;;;;;;10.25;9.75;;;;;8.90;71.17;101269.22;5100882;27;45462;-87
2022/10/12 05:07:06;;;;;;;;;10.00;10.00;;;;;9.58;71.39;101379.81;5100718;27;45533;-86
2022/10/12 05:09:31;;;;;;;;;10.00;9.00;;;;;9.40;71.25;101349.97;5117318;27;45831;-87
2022/10/12 05:11:56;;;;;;;;;10.00;9.00;;;;;9.77;71.89;101407.06;5121222;27;45413;-87
2022/10/12 05:14:22;;;;;;;;;14.00;11.25;;;;;8.78;71.61;101253.44;5123952;27;44710;-87
2022/10/12 05:16:47;;;;;;;;;10.00;9.75;;;;;9.88;71.73;101438.69;5122361;27;45247;-86
2022/10/12 05:19:12;;;;;;;;;7.00;7.00;;;;;10.03;72.29;101457.13;5122401;27;46750;-86
2022/10/12 05:21:39;;;;;;;;;10.00;10.00;;;;;9.45;71.53;101362.28;5102834;27;45652;-86
2022/10/12 05:24:07;;;;;;;;;14.50;11.25;;;;;9.81;71.34;101414.09;5118566;27;45572;-87
2022/10/12 05:26:32;;;;;;;;;11.00;10.25;;;;;9.50;71.90;101376.34;5117975;27;45600;-86
2022/10/12 05:28:58;;;;;;;;;12.75;12.75;;;;;9.46;71.32;101369.31;5099651;27;46338;-86
2022/10/12 05:31:23;;;;;;;;;11.50;9.25;;;;;9.82;72.09;101438.72;5102058;27;45562;-87
2022/10/12 05:33:48;;;;;;;;;14.25;10.00;;;;;9.18;71.76;101349.16;5118121;27;45290;-87
2022/10/12 05:36:14;;;;;;;;;10.75;9.25;;;;;9.35;72.21;101377.25;5099315;27;45448;-88
2022/10/12 05:38:39;;;;;;;;;8.75;8.75;;;;;9.42;72.20;101390.44;5109569;27;55866;-87
2022/10/12 05:41:07;;;;;;;;;13.75;10.00;;;;;9.27;72.60;101361.44;5079475;27;45758;-86
2022/10/12 05:43:32;;;;;;;;;7.50;6.75;;;;;9.87;72.31;101465.97;5110469;27;45317;-85
2022/10/12 05:45:58;;;;;;;;;11.00;10.50;;;;;9.92;72.33;101475.66;5099490;27;45280;-87
2022/10/12 05:48:23;;;;;;;;;10.75;10.25;;;;;9.94;72.78;101480.94;5118736;27;46094;-87
2022/10/12 05:50:52;;;;;;;;;12.25;9.00;;;;;9.67;72.30;101431.72;5101724;27;45325;-87
2022/10/12 05:53:17;;;;;;;;;13.75;9.00;;;;;9.42;72.70;101389.56;5096230;27;45564;-87
2022/10/12 05:56:12;;;;;;;;;11.75;10.00;;;;;9.92;72.53;101473.00;5117602;27;45541;-88
2022/10/12 05:58:37;;;;;;;;;11.00;10.50;;;;;9.14;72.88;101336.88;5072371;27;48091;-87
2022/10/12 06:01:05;;;;;;;;;10.50;10.50;;;;;9.34;73.26;101371.09;5097771;27;45766;-87
2022/10/12 06:03:31;;;;;;;;;13.00;11.50;;;;;9.04;72.72;101317.53;5098917;27;45509;-87
2022/10/12 06:05:56;;;;;;;;;13.00;10.25;;;;;9.30;73.09;101353.53;5100208;27;45609;-88
2022/10/12 06:08:21;;;;;;;;;16.00;10.00;;;;;9.79;72.64;101442.25;5101713;27;47643;-87
2022/10/12 06:10:49;;;;;;;;;12.50;12.50;;;;;9.46;72.60;101390.41;5108674;27;45433;-89
2022/10/12 06:13:16;;;;;;;;;14.75;9.75;;;;;9.30;72.72;101366.72;5110671;27;45576;-90
2022/10/12 06:15:44;;;;;;;;;9.25;9.25;;;;;8.70;72.99;101261.38;5096646;27;45572;-89
2022/10/12 06:18:10;;;;;;;;;13.50;12.00;;;;;9.31;73.22;101365.84;5100067;27;48403;-90
2022/10/12 06:20:35;;;;;;;;;12.25;10.50;;;;;9.60;72.99;101407.13;5100489;27;46088;-90
2022/10/12 06:23:00;;;;;;;;;11.75;10.00;;;;;9.31;72.71;101372.88;5117601;27;45375;-90
2022/10/12 06:25:26;;;;;;;;;16.25;11.75;;;;;9.86;73.12;101448.41;5096296;27;45586;-87
2022/10/12 06:27:51;;;;;;;;;13.75;11.25;;;;;9.22;72.28;101331.56;5117396;27;45411;-87
2022/10/12 06:30:16;;;;;;;;;14.25;13.25;;;;;10.20;71.77;101490.53;5117092;27;45258;-87
2022/10/12 06:32:42;;;;;;;;;16.00;14.75;;;;;10.11;72.62;101459.72;5094665;27;45389;-87
2022/10/12 06:35:08;;;;;;;;;16.50;14.25;;;;;9.17;72.18;101277.94;5105985;27;45267;-90
2022/10/12 06:37:33;;;;;;;;;14.50;11.50;;;;;9.80;71.53;101369.22;5116651;27;48055;-89
2022/10/12 06:39:59;;;;;;;;;15.75;14.50;;;;;9.91;71.68;101367.38;5099157;27;45297;-89
2022/10/12 06:42:24;;;;;;;;;14.25;11.00;;;;;10.25;71.06;101409.50;5098895;27;45371;-89
2022/10/12 06:44:49;;;;;;;;;15.00;13.75;;;;;10.63;70.45;101442.78;5104680;27;45454;-87
2022/10/12 06:47:15;;;;;;;;;13.75;11.00;;;;;10.51;70.99;101400.53;5096726;27;47903;-89
2022/10/12 06:49:40;;;;;;;;;10.00;10.00;;;;;10.88;70.09;101445.25;5101037;27;45358;-91
2022/10/12 06:52:05;;;;;;;;;15.00;14.50;;;;;10.83;69.95;101400.34;5100868;27;45262;-90
2022/10/12 06:54:31;;;;;;;;;16.00;14.75;;;;;10.96;69.57;101399.34;5098625;27;45589;-89
2022/10/12 06:56:56;;;;;;;;;14.50;14.00;;;;;11.09;69.32;101397.44;5099254;27;48346;-89
2022/10/12 06:59:21;;;;;;;;;12.50;12.50;;;;;11.08;68.74;101371.88;5117648;27;45477;-89
2022/10/12 07:01:48;;;;;;;;;13.75;11.00;;;;;12.13;68.04;101495.28;5102195;27;45361;-88
2022/10/12 07:04:14;;;;;;;;;14.25;14.25;;;;;12.09;66.18;101411.41;5099931;27;45444;-89
2022/10/12 07:06:39;;;;;;;;;15.75;13.25;;;;;12.41;65.73;101418.03;5116340;27;46798;-86
2022/10/12 07:09:05;;;;;;;;;16.25;14.25;;;;;12.70;64.81;101448.56;5099748;27;45787;-87
2022/10/12 07:11:30;;;;;;;;;15.75;13.25;;;;;12.64;64.67;101435.38;5117020;27;45601;-87
2022/10/12 07:13:57;;;;;;;;;20.75;18.00;;;;;12.98;63.85;101462.25;5075887;28;45272;-87
2022/10/12 07:16:23;;;;;;;;;17.50;17.25;;;;;12.71;63.20;101384.00;5081548;27;47401;-87
2022/10/12 07:18:48;;;;;;;;;17.25;17.25;;;;;12.82;62.82;101373.22;5080608;27;45300;-84
2022/10/12 07:21:13;;;;;;;;;18.75;17.75;;;;;14.27;61.09;101474.09;5097799;27;45617;-89
2022/10/12 07:23:39;;;;;;;;;19.00;14.00;;;;;14.81;59.33;101497.75;5074940;28;45611;-85
2022/10/12 07:26:06;;;;;;;;;18.00;17.00;;;;;13.53;58.95;101306.44;5094534;27;45365;-90
2022/10/12 07:28:33;;;;;;;;;18.25;14.75;;;;;13.71;59.63;101349.47;5065467;27;45382;-88
2022/10/12 07:31:04;;;;;;;;;17.75;16.00;;;;;14.64;59.91;101503.47;5077374;27;45387;-88
2022/10/12 07:33:33;;;;;;;;;15.50;13.50;;;;;13.98;59.06;101372.81;5096099;27;45507;-88
2022/10/12 07:36:00;;;;;;;;;20.50;16.25;;;;;14.20;58.93;101377.66;5077580;27;47213;-85
2022/10/12 07:38:26;;;;;;;;;18.00;17.25;;;;;14.85;58.26;101463.94;5097829;27;45437;-89
2022/10/12 07:40:52;;;;;;;;;20.00;17.50;;;;;15.13;57.79;101481.94;5095496;27;45401;-88
2022/10/12 07:43:17;;;;;;;;;17.25;15.25;;;;;14.65;57.43;101366.88;5077992;27;45383;-88
2022/10/12 07:45:43;;;;;;;;;17.75;16.50;;;;;15.69;57.36;101490.25;5079763;27;48305;-85
2022/10/12 07:48:08;;;;;;;;;18.75;17.25;;;;;15.56;56.66;101416.88;5083416;27;45571;-85
2022/10/12 07:50:34;;;;;;;;;18.00;16.25;;;;;15.89;55.87;101435.56;5079381;27;45354;-86
2022/10/12 07:53:00;;;;;;;;;22.00;20.50;;;;;16.46;54.10;101488.09;5095314;27;45315;-87
2022/10/12 07:55:25;;;;;;;;;21.25;19.25;;;;;16.21;54.20;101423.94;5076856;27;47315;-87
2022/10/12 07:57:50;;;;;;;;;21.00;19.50;;;;;15.89;53.66;101345.78;5078340;27;45443;-87
2022/10/12 08:00:16;;;;;;;;;15.50;14.50;;;;;16.80;53.80;101455.03;5096302;27;45366;-86
2022/10/12 08:02:41;;;;;;;;;22.25;20.00;;;;;17.20;52.25;101434.16;5095391;27;45668;-86
2022/10/12 08:05:07;;;;;;;;;18.25;16.50;;;;;17.45;50.29;101377.22;5096094;27;45813;-89
2022/10/12 08:07:32;;;;;;;;;23.25;18.75;;;;;17.90;50.15;101387.16;5078533;27;45859;-86
2022/10/12 08:09:58;;;;;;;;;18.75;18.75;;;;;18.72;48.15;101461.59;5084372;27;45502;-88
2022/10/12 08:12:23;;;;;;;;;19.75;18.50;;;;;19.43;47.23;101472.09;5080999;27;45419;-88
2022/10/12 08:14:48;;;;;;;;;22.50;19.00;;;;;19.98;47.42;101445.56;5078929;27;47051;-87
2022/10/12 08:17:14;;;;;;;;;20.25;19.75;;;;;20.45;46.28;101432.66;5100282;27;45380;-88
2022/10/12 08:19:39;;;;;;;;;21.50;18.50;;;;;21.36;43.96;101519.56;5070947;28;45426;-87
2022/10/12 08:22:04;;;;;;;;;16.00;16.00;;;;;21.22;44.35;101436.94;5080360;28;45607;-88
2022/10/12 08:24:30;;;;;;;;;21.00;19.25;;;;;21.61;43.65;101434.03;5074598;27;48081;-88
2022/10/12 08:26:56;;;;;;;;;22.00;20.25;;;;;22.01;42.70;101422.94;5098217;27;45304;-88
2022/10/12 08:29:25;;;;;;;;;21.00;19.75;;;;;23.04;41.75;101529.44;5078255;27;45594;-89
2022/10/12 08:31:50;;;;;;;;;18.75;18.50;;;;;23.15;41.23;101439.91;5082105;27;45483;-88
2022/10/12 08:34:15;;;;;;;;;21.25;19.00;;;;;23.54;39.66;101439.31;5103947;27;46213;-88
2022/10/12 08:36:41;;;;;;;;;16.75;16.75;;;;;23.71;38.56;101440.13;5093240;27;45295;-88
2022/10/12 08:39:07;;;;;;;;;25.00;22.50;;;;;24.35;37.12;101501.84;5110482;27;46093;-88
2022/10/12 08:41:41;;;;;;;;;21.00;17.75;;;;;24.63;37.68;101509.97;5082307;27;45596;-88
2022/10/12 08:44:19;;;;;;;;;20.50;19.50;;;;;24.90;36.22;101509.13;5079878;27;48424;-88
2022/10/12 08:46:45;;;;;;;;;23.50;23.50;;;;;24.43;37.33;101418.47;5080384;27;45363;-88
2022/10/12 08:49:15;;;;;;;;;24.50;21.25;;;;;25.37;35.87;101515.03;5079843;27;45318;-88
2022/10/12 08:51:53;;;;;;;;;20.75;19.75;;;;;25.45;35.95;101501.03;5081473;27;45551;-88
2022/10/12 08:54:24;;;;;;;;;23.75;21.00;;;;;25.20;37.05;101426.91;5097681;27;46426;-88
2022/10/12 08:56:53;;;;;;;;;23.00;21.25;;;;;25.78;36.26;101529.41;5094997;27;45526;-88
2022/10/12 08:59:18;;;;;;;;;21.25;21.25;;;;;25.24;35.48;101444.66;5099539;27;45388;-88
2022/10/12 09:02:21;;;;;;;;;22.25;19.25;;;;;25.83;35.83;101522.72;5080151;27;45501;-89
2022/10/12 09:04:53;;;;;;;;;27.75;25.00;;;;;25.95;35.19;101520.09;5068144;27;47589;-88
2022/10/12 09:07:35;;;;;;;;;17.75;16.50;;;;;26.00;36.26;101526.13;5073381;27;45540;-88
2022/10/12 09:10:32;;;;;;;;;27.25;23.50;;;;;25.85;36.34;101520.75;5102014;27;45314;-89
2022/10/12 09:13:31;;;;;;;;;28.50;26.50;;;;;25.67;35.06;101512.06;5084343;27;45428;-87
2022/10/12 09:16:03;;;;;;;;;23.25;21.25;;;;;25.38;35.14;101475.34;5096839;27;45453;-87
2022/10/12 09:18:38;;;;;;;;;22.25;22.25;;;;;25.32;34.91;101484.75;5097793;27;45395;-87
2022/10/12 09:21:06;;;;;;;;;22.75;21.50;;;;;24.73;35.30;101394.00;5079852;27;45393;-89
2022/10/12 09:23:38;;;;;;;;;25.25;21.00;;;;;24.70;37.06;101413.13;5080285;27;45576;-89
2022/10/12 09:26:35;;;;;;;;;24.00;20.75;;;;;25.42;36.03;101512.91;5081023;27;46811;-89
2022/10/12 09:29:03;;;;;;;;;23.75;22.75;;;;;25.56;36.04;101470.50;5079644;27;45597;-88
2022/10/12 09:31:56;;;;;;;;;26.00;19.25;;;;;26.23;35.32;101502.81;5090553;27;45640;-87
2022/10/12 09:34:23;;;;;;;;;30.50;26.50;;;;;26.15;34.49;101460.03;5092930;27;45513;-88
2022/10/12 09:36:49;;;;;;;;;30.50;24.50;;;;;25.84;33.33;101385.50;5078549;27;48593;-87
2022/10/12 09:39:31;;;;;;;;;24.75;24.25;;;;;26.01;33.13;101377.06;5077443;27;45493;-89
2022/10/12 09:41:56;;;;;;;;;31.50;24.25;;;;;25.70;33.52;101319.69;5096522;27;45598;-87
2022/10/12 09:44:43;;;;;;;;;21.50;20.50;;;;;25.65;33.94;101337.25;5077893;27;45297;-86
2022/10/12 09:47:25;;;;;;;;;24.25;23.25;;;;;26.26;34.64;101489.03;5096130;27;46133;-85
2022/10/12 09:49:57;;;;;;;;;28.50;25.75;;;;;26.28;34.46;101487.06;5078929;27;45467;-85
2022/10/12 09:52:40;;;;;;;;;21.25;20.00;;;;;25.98;35.60;101434.16;5100604;27;45288;-87
2022/10/12 09:55:22;;;;;;;;;19.25;19.25;;;;;25.99;34.84;101435.88;5080247;27;45398;-89
2022/10/12 09:57:58;;;;;;;;;23.25;20.75;;;;;25.80;35.22;101356.94;5108306;27;45596;-86
2022/10/12 10:00:27;;;;;;;;;16.75;15.50;;;;;25.68;34.04;101302.72;5095582;27;45426;-89
2022/10/12 10:02:53;;;;;;;;;20.00;16.00;;;;;25.75;35.28;101308.56;5082698;27;45512;-91
2022/10/12 10:05:24;;;;;;;;;18.50;16.75;;;;;26.97;35.46;101481.16;5085359;27;45299;-88
2022/10/12 10:07:50;;;;;;;;;15.50;14.50;;;;;26.28;35.60;101348.91;5099946;27;45538;-85
2022/10/12 10:10:20;;;;;;;;;16.25;15.75;;;;;26.35;34.82;101338.50;5075880;27;45651;-84
2022/10/12 10:12:57;;;;;;;;;19.00;17.25;;;;;27.33;34.04;101481.22;5075878;27;45483;-86
2022/10/12 10:15:38;;;;;;;;;19.00;15.75;;;;;26.62;35.08;101378.03;5094701;27;45573;-88
2022/10/12 10:18:34;;;;;;;;;19.25;16.25;;;;;26.96;35.01;101446.88;5086677;27;46403;-86
2022/10/12 10:21:03;;;;;;;;;15.75;14.50;;;;;26.88;35.31;101433.06;5071392;27;45540;-89
2022/10/12 10:23:37;;;;;;;;;16.75;15.25;;;;;26.62;35.59;101384.34;5097872;27;45479;-90
2022/10/12 10:26:08;;;;;;;;;16.75;15.25;;;;;27.08;35.55;101475.78;5081030;27;45655;-89
2022/10/12 10:28:36;;;;;;;;;14.00;14.00;;;;;26.91;36.26;101473.50;5067884;28;46273;-90
2022/10/12 10:31:03;;;;;;;;;13.00;12.00;;;;;26.51;35.73;101465.56;5076851;27;45330;-89
2022/10/12 10:33:39;;;;;;;;;10.75;10.75;;;;;25.96;36.83;101468.56;5078746;27;45675;-88
2022/10/12 10:36:22;;;;;;;;;17.00;12.75;;;;;25.59;38.01;101463.03;5097814;27;45514;-89
2022/10/12 10:39:05;;;;;;;;;13.00;10.25;;;;;24.79;38.75;101380.09;5082188;27;46238;-89
2022/10/12 10:41:40;;;;;;;;;14.75;12.50;;;;;24.66;38.85;101384.59;5076536;27;45563;-91
2022/10/12 10:44:21;;;;;;;;;13.00;13.00;;;;;24.74;39.24;101413.81;5078627;27;45401;-89
2022/10/12 10:46:46;;;;;;;;;14.25;14.25;;;;;24.75;39.69;101399.31;5082834;27;45031;-88
2022/10/12 10:49:31;;;;;;;;;12.75;11.75;;;;;24.69;39.09;101378.09;5096666;27;45402;-89
2022/10/12 10:51:58;;;;;;;;;12.50;11.50;;;;;24.13;38.50;101284.53;5070287;27;45402;-87
2022/10/12 10:54:27;;;;;;;;;14.50;11.00;;;;;25.13;38.40;101458.06;5082093;27;45375;-88
2022/10/12 10:57:00;;;;;;;;;9.50;9.25;;;;;24.18;38.81;101287.78;5080859;27;45439;-88
2022/10/12 10:59:52;;;;;;;;;10.00;10.00;;;;;25.38;39.07;101451.00;5087813;27;47629;-86
2022/10/12 11:02:29;;;;;;;;;12.75;10.25;;;;;25.21;38.36;101385.38;5082224;28;45505;-87
2022/10/12 11:05:10;;;;;;;;;12.00;12.00;;;;;25.63;37.86;101421.25;5079359;27;45519;-87
2022/10/12 11:07:50;;;;;;;;;13.00;10.75;;;;;25.98;37.91;101469.38;5099991;27;45538;-86
2022/10/12 11:10:27;;;;;;;;;13.00;13.00;;;;;26.06;37.65;101461.53;5097430;27;45335;-85
2022/10/12 11:13:16;;;;;;;;;13.75;13.75;;;;;25.38;36.85;101326.56;5077004;27;45409;-86
2022/10/12 11:15:51;;;;;;;;;14.50;13.25;;;;;25.49;36.74;101372.66;5098470;27;44820;-90
2022/10/12 11:18:35;;;;;;;;;13.25;11.75;;;;;24.86;36.93;101283.25;5100912;27;45379;-91
2022/10/12 11:21:14;;;;;;;;;11.00;11.00;;;;;25.08;37.63;101357.44;5080524;27;47188;-90
2022/10/12 11:24:04;;;;;;;;;11.25;10.75;;;;;25.46;38.02;101448.63;5082739;27;45237;-90
2022/10/12 11:26:47;;;;;;;;;16.50;14.00;;;;;24.59;38.51;101343.59;5089332;27;45330;-90
2022/10/12 11:29:16;;;;;;;;;11.25;11.25;;;;;24.80;38.81;101424.22;5107192;27;45340;-91
2022/10/12 11:31:49;;;;;;;;;14.00;13.00;;;;;24.42;38.72;101414.94;5084560;27;47432;-90